createdAt,value
2022-12-02T00:01:54.198Z,6.80
2022-12-02T00:04:21.474Z,6.90
2022-12-02T00:06:48.477Z,6.90
2022-12-02T00:09:15.202Z,6.90
2022-12-02T00:11:42.043Z,6.90
2022-12-02T00:14:08.785Z,6.90
2022-12-02T00:16:35.576Z,6.80
2022-12-02T00:19:02.319Z,6.80
2022-12-02T00:21:29.094Z,6.80
2022-12-02T00:23:55.748Z,6.80
2022-12-02T00:26:22.435Z,6.80
2022-12-02T00:28:49.143Z,6.80
2022-12-02T00:31:15.956Z,6.80
2022-12-02T00:33:43.265Z,6.80
2022-12-02T00:36:09.973Z,6.80
2022-12-02T00:38:36.675Z,6.80
2022-12-02T00:41:03.379Z,6.80
2022-12-02T00:43:48.826Z,6.80
2022-12-02T00:46:34.958Z,6.90
2022-12-02T00:49:01.757Z,6.90
2022-12-02T00:51:28.519Z,6.90
2022-12-02T00:53:55.244Z,6.80
2022-12-02T00:56:22.120Z,6.80
2022-12-02T00:58:49.296Z,6.80
2022-12-02T01:01:16.116Z,6.80
2022-12-02T01:03:46.086Z,6.80
2022-12-02T01:06:13.182Z,6.80
2022-12-02T01:08:39.891Z,6.80
2022-12-02T01:11:06.588Z,6.80
2022-12-02T01:13:33.374Z,6.70
2022-12-02T01:16:00.255Z,6.70
2022-12-02T01:18:28.371Z,6.70
2022-12-02T01:20:55.090Z,6.70
2022-12-02T01:23:21.798Z,6.70
2022-12-02T01:25:48.741Z,6.70
2022-12-02T01:28:15.488Z,6.60
2022-12-02T01:30:42.218Z,6.60
2022-12-02T01:33:08.907Z,6.50
2022-12-02T01:35:35.555Z,6.50
2022-12-02T01:38:02.296Z,6.40
2022-12-02T01:40:28.976Z,6.40
2022-12-02T01:42:55.660Z,6.40
2022-12-02T01:45:22.488Z,6.40
2022-12-02T01:47:49.192Z,6.30
2022-12-02T01:50:15.905Z,6.30
2022-12-02T01:52:43.099Z,6.30
2022-12-02T01:55:09.825Z,6.30
2022-12-02T01:57:36.547Z,6.30
2022-12-02T02:00:03.540Z,6.30
2022-12-02T02:02:38.247Z,6.30
2022-12-02T02:05:05.058Z,6.20
2022-12-02T02:07:32.738Z,6.30
2022-12-02T02:09:59.510Z,6.20
2022-12-02T02:12:27.558Z,6.20
2022-12-02T02:14:54.658Z,6.20
2022-12-02T02:17:21.980Z,6.20
2022-12-02T02:19:49.130Z,6.20
2022-12-02T02:22:15.873Z,6.20
2022-12-02T02:24:42.716Z,6.30
2022-12-02T02:27:10.130Z,6.30
2022-12-02T02:29:37.123Z,6.30
2022-12-02T02:32:04.011Z,6.30
2022-12-02T02:34:30.678Z,6.30
2022-12-02T02:36:58.395Z,6.40
2022-12-02T02:39:25.196Z,6.30
2022-12-02T02:41:51.997Z,6.30
2022-12-02T02:44:24.063Z,6.30
2022-12-02T02:46:52.936Z,6.30
2022-12-02T02:49:19.758Z,6.30
2022-12-02T02:51:46.391Z,6.30
2022-12-02T02:54:13.915Z,6.30
2022-12-02T02:56:40.944Z,6.20
2022-12-02T02:59:07.703Z,6.20
2022-12-02T03:01:34.497Z,6.20
2022-12-02T03:04:01.534Z,6.20
2022-12-02T03:06:28.283Z,6.20
2022-12-02T03:08:56.333Z,6.10
2022-12-02T03:11:23.426Z,6.10
2022-12-02T03:13:50.075Z,6.10
2022-12-02T03:16:16.920Z,6.10
2022-12-02T03:18:43.727Z,6.10
2022-12-02T03:21:10.394Z,6.20
2022-12-02T03:23:37.052Z,6.20
2022-12-02T03:26:03.740Z,6.20
2022-12-02T03:28:30.471Z,6.20
2022-12-02T03:30:57.174Z,6.20
2022-12-02T03:33:23.916Z,6.20
2022-12-02T03:35:50.607Z,6.10
2022-12-02T03:38:17.305Z,6.10
2022-12-02T03:40:43.973Z,6.20
2022-12-02T03:43:10.655Z,6.20
2022-12-02T03:45:37.431Z,6.20
2022-12-02T03:48:04.360Z,6.20
2022-12-02T03:50:31.043Z,6.20
2022-12-02T03:52:57.813Z,6.20
2022-12-02T03:55:24.503Z,6.20
2022-12-02T03:57:51.225Z,6.10
2022-12-02T04:00:17.930Z,6.10
2022-12-02T04:02:44.649Z,6.10
2022-12-02T04:05:11.532Z,6.00
2022-12-02T04:07:38.290Z,6.00
2022-12-02T04:10:05.031Z,6.00
2022-12-02T04:12:31.888Z,6.00
2022-12-02T04:14:58.631Z,6.00
2022-12-02T04:17:25.349Z,6.00
2022-12-02T04:19:52.028Z,6.00
2022-12-02T04:22:18.809Z,6.00
2022-12-02T04:24:45.587Z,6.00
2022-12-02T04:27:12.270Z,6.00
2022-12-02T04:29:39.070Z,6.00
2022-12-02T04:32:05.780Z,6.00
2022-12-02T04:34:32.446Z,6.00
2022-12-02T04:36:59.082Z,5.90
2022-12-02T04:39:25.768Z,6.00
2022-12-02T04:41:53.277Z,5.90
2022-12-02T04:44:19.970Z,5.90
2022-12-02T04:46:46.864Z,5.80
2022-12-02T04:49:13.639Z,5.90
2022-12-02T04:51:40.308Z,5.90
2022-12-02T04:54:06.958Z,5.90
2022-12-02T04:56:33.650Z,6.00
2022-12-02T04:59:00.843Z,5.90
2022-12-02T05:01:27.488Z,5.90
2022-12-02T05:03:54.285Z,5.90
2022-12-02T05:06:20.995Z,5.90
2022-12-02T05:08:47.742Z,5.90
2022-12-02T05:11:14.421Z,5.90
2022-12-02T05:13:41.082Z,6.00
2022-12-02T05:16:07.948Z,6.00
2022-12-02T05:18:34.771Z,6.00
2022-12-02T05:21:01.531Z,6.00
2022-12-02T05:23:28.254Z,6.00
2022-12-02T05:25:54.981Z,6.00
2022-12-02T05:28:21.689Z,6.00
2022-12-02T05:30:48.379Z,6.00
2022-12-02T05:33:15.048Z,6.00
2022-12-02T05:35:41.770Z,6.00
2022-12-02T05:38:08.522Z,6.00
2022-12-02T05:40:35.184Z,5.90
2022-12-02T05:43:01.879Z,5.90
2022-12-02T05:45:28.541Z,6.00
2022-12-02T05:47:55.262Z,5.90
2022-12-02T05:50:21.965Z,5.90
2022-12-02T05:52:55.034Z,5.90
2022-12-02T05:55:21.782Z,5.90
2022-12-02T05:57:48.537Z,5.90
2022-12-02T06:00:15.754Z,5.90
2022-12-02T06:02:42.519Z,6.00
2022-12-02T06:05:09.250Z,6.00
2022-12-02T06:07:36.009Z,6.00
2022-12-02T06:10:02.702Z,6.10
2022-12-02T06:12:29.430Z,6.10
2022-12-02T06:14:56.120Z,6.00
2022-12-02T06:17:22.883Z,6.00
2022-12-02T06:19:49.555Z,6.00
2022-12-02T06:22:16.301Z,6.00
2022-12-02T06:24:42.998Z,6.10
2022-12-02T06:27:09.703Z,6.00
2022-12-02T06:29:36.532Z,6.00
2022-12-02T06:32:03.250Z,6.00
2022-12-02T06:34:31.294Z,5.90
2022-12-02T06:36:59.071Z,6.00
2022-12-02T06:39:25.809Z,5.90
2022-12-02T06:41:54.560Z,6.00
2022-12-02T06:44:39.870Z,6.00
2022-12-02T06:47:06.580Z,6.00
2022-12-02T06:49:33.253Z,6.00
2022-12-02T06:52:00.041Z,6.00
2022-12-02T06:54:26.744Z,5.90
2022-12-02T06:56:53.474Z,5.90
2022-12-02T06:59:20.208Z,5.90
2022-12-02T07:01:46.934Z,5.90
2022-12-02T07:04:13.720Z,5.90
2022-12-02T07:06:40.458Z,5.90
2022-12-02T07:09:07.262Z,5.80
2022-12-02T07:11:53.360Z,5.80
2022-12-02T07:14:20.585Z,5.80
2022-12-02T07:16:47.358Z,5.70
2022-12-02T07:19:14.310Z,5.80
2022-12-02T07:21:40.993Z,5.80
2022-12-02T07:24:07.630Z,5.80
2022-12-02T07:26:34.411Z,5.90
2022-12-02T07:29:15.318Z,5.90
2022-12-02T07:31:47.017Z,5.90
2022-12-02T07:34:13.881Z,5.90
2022-12-02T07:36:40.623Z,5.90
2022-12-02T07:39:07.731Z,5.90
2022-12-02T07:41:38.381Z,5.90
2022-12-02T07:44:05.074Z,5.90
2022-12-02T07:46:31.950Z,5.90
2022-12-02T07:48:58.854Z,5.90
2022-12-02T07:51:25.494Z,6.00
2022-12-02T07:53:52.224Z,6.00
2022-12-02T07:56:18.923Z,6.00
2022-12-02T08:01:32.398Z,6.10
2022-12-02T08:03:59.149Z,6.10
2022-12-02T08:06:25.842Z,6.10
2022-12-02T08:08:52.513Z,6.10
2022-12-02T08:11:19.249Z,6.10
2022-12-02T08:13:45.966Z,6.10
2022-12-02T08:16:12.629Z,6.10
2022-12-02T08:18:39.400Z,6.10
2022-12-02T08:21:09.036Z,6.10
2022-12-02T08:23:35.991Z,6.10
2022-12-02T08:26:02.697Z,6.20
2022-12-02T08:28:29.438Z,6.10
2022-12-02T08:30:56.243Z,6.20
2022-12-02T08:33:23.037Z,6.20
2022-12-02T08:35:49.786Z,6.20
2022-12-02T08:38:16.484Z,6.20
2022-12-02T08:40:43.985Z,6.20
2022-12-02T08:43:10.723Z,6.30
2022-12-02T08:45:37.430Z,6.30
2022-12-02T08:48:04.161Z,6.30
2022-12-02T08:50:30.803Z,6.30
2022-12-02T08:52:58.714Z,6.30
2022-12-02T08:55:25.664Z,6.30
2022-12-02T08:57:52.389Z,6.40
2022-12-02T09:00:19.097Z,6.40
2022-12-02T09:02:45.867Z,6.40
2022-12-02T09:05:12.650Z,6.40
2022-12-02T09:07:39.424Z,6.40
2022-12-02T09:10:06.511Z,6.40
2022-12-02T09:12:33.245Z,6.50
2022-12-02T09:15:00.010Z,6.50
2022-12-02T09:17:26.709Z,6.50
2022-12-02T09:19:53.563Z,6.50
2022-12-02T09:22:20.287Z,6.60
2022-12-02T09:24:47.035Z,6.60
2022-12-02T09:27:13.836Z,6.60
2022-12-02T09:29:40.579Z,6.70
2022-12-02T09:32:07.230Z,6.70
2022-12-02T09:34:33.906Z,6.70
2022-12-02T09:37:00.698Z,6.60
2022-12-02T09:39:27.514Z,6.70
2022-12-02T09:41:54.216Z,6.60
2022-12-02T09:44:20.929Z,6.70
2022-12-02T09:46:47.661Z,6.70
2022-12-02T09:49:14.490Z,6.70
2022-12-02T09:51:41.206Z,6.80
2022-12-02T09:54:07.915Z,6.80
2022-12-02T09:56:35.288Z,6.90
2022-12-02T09:59:02.168Z,6.90
2022-12-02T10:01:28.919Z,6.90
2022-12-02T10:03:55.682Z,6.80
2022-12-02T10:06:22.375Z,6.80
2022-12-02T10:08:49.110Z,6.80
2022-12-02T10:11:15.840Z,6.80
2022-12-02T10:13:42.550Z,6.80
2022-12-02T10:16:09.236Z,6.90
2022-12-02T10:18:36.002Z,6.90
2022-12-02T10:21:02.717Z,6.90
2022-12-02T10:23:29.420Z,6.90
2022-12-02T10:25:58.396Z,6.90
2022-12-02T10:28:25.190Z,6.90
2022-12-02T10:30:51.918Z,6.90
2022-12-02T10:33:18.681Z,6.90
2022-12-02T10:35:45.404Z,6.90
2022-12-02T10:38:12.116Z,6.90
2022-12-02T10:40:38.864Z,7.00
2022-12-02T10:43:05.760Z,7.00
2022-12-02T10:45:32.466Z,7.00
2022-12-02T10:47:59.208Z,7.00
2022-12-02T10:50:25.916Z,7.10
2022-12-02T10:52:52.587Z,7.10
2022-12-02T10:55:19.327Z,7.20
2022-12-02T10:57:46.116Z,7.20
2022-12-02T11:00:12.792Z,7.30
2022-12-02T11:02:39.546Z,7.30
2022-12-02T11:05:06.385Z,7.20
2022-12-02T11:07:33.065Z,7.30
2022-12-02T11:09:59.856Z,7.30
2022-12-02T11:12:26.562Z,7.30
2022-12-02T11:14:53.439Z,7.30
2022-12-02T11:17:20.314Z,7.40
2022-12-02T11:19:46.967Z,7.40
2022-12-02T11:22:13.674Z,7.40
2022-12-02T11:24:40.527Z,7.40
2022-12-02T11:27:07.208Z,7.40
2022-12-02T11:29:33.992Z,7.50
2022-12-02T11:32:00.933Z,7.50
2022-12-02T11:34:27.679Z,7.50
2022-12-02T11:36:54.429Z,7.50
2022-12-02T11:39:21.138Z,7.60
2022-12-02T11:41:47.954Z,7.60
2022-12-02T11:44:14.705Z,7.60
2022-12-02T11:46:41.378Z,7.60
2022-12-02T11:49:08.151Z,7.60
2022-12-02T11:51:34.878Z,7.60
2022-12-02T11:54:01.612Z,7.60
2022-12-02T11:56:28.347Z,7.60
2022-12-02T11:58:55.042Z,7.60
2022-12-02T12:01:21.789Z,7.70
2022-12-02T12:03:48.640Z,7.80
2022-12-02T12:06:15.619Z,7.90
2022-12-02T12:08:43.107Z,7.90
2022-12-02T12:11:09.948Z,8.00
2022-12-02T12:13:37.290Z,8.00
2022-12-02T12:16:04.245Z,8.00
2022-12-02T12:18:31.086Z,8.00
2022-12-02T12:20:57.908Z,8.00
2022-12-02T12:23:24.720Z,8.10
2022-12-02T12:25:51.594Z,8.10
2022-12-02T12:28:18.478Z,8.10
2022-12-02T12:30:45.269Z,8.10
2022-12-02T12:33:12.059Z,8.10
2022-12-02T12:35:38.775Z,8.00
2022-12-02T12:38:05.457Z,8.10
2022-12-02T12:40:32.406Z,8.10
2022-12-02T12:42:59.135Z,8.10
2022-12-02T12:45:26.003Z,8.10
2022-12-02T12:47:52.904Z,8.10
2022-12-02T12:50:19.691Z,8.10
2022-12-02T12:52:46.429Z,8.10
2022-12-02T12:55:13.175Z,8.20
2022-12-02T12:57:39.917Z,8.20
2022-12-02T13:00:06.779Z,8.20
2022-12-02T13:02:33.539Z,8.30
2022-12-02T13:05:00.243Z,8.30
2022-12-02T13:07:27.019Z,8.40
2022-12-02T13:09:54.007Z,8.30
2022-12-02T13:12:20.826Z,8.30
2022-12-02T13:14:47.585Z,8.20
2022-12-02T13:17:14.324Z,8.20
2022-12-02T13:19:41.145Z,8.10
2022-12-02T13:22:07.897Z,8.20
2022-12-02T13:24:42.563Z,8.20
2022-12-02T13:27:09.798Z,8.30
2022-12-02T13:29:36.658Z,8.40
2022-12-02T13:32:04.182Z,8.40
2022-12-02T13:34:30.892Z,8.40
2022-12-02T13:36:57.654Z,8.40
2022-12-02T13:39:24.367Z,8.40
2022-12-02T13:41:51.117Z,8.40
2022-12-02T13:44:17.818Z,8.30
2022-12-02T13:46:44.812Z,8.30
2022-12-02T13:49:11.528Z,8.30
2022-12-02T13:51:38.279Z,8.30
2022-12-02T13:54:05.008Z,8.30
2022-12-02T13:56:31.704Z,8.30
2022-12-02T13:58:58.406Z,8.30
2022-12-02T14:01:25.199Z,8.30
2022-12-02T14:03:52.231Z,8.30
2022-12-02T14:06:18.973Z,8.30
2022-12-02T14:08:45.644Z,8.20
2022-12-02T14:11:12.346Z,8.20
2022-12-02T14:13:39.020Z,8.20
2022-12-02T14:16:05.715Z,8.20
2022-12-02T14:18:32.590Z,8.20
2022-12-02T14:20:59.327Z,8.20
2022-12-02T14:23:26.036Z,8.20
2022-12-02T14:25:52.743Z,8.10
2022-12-02T14:28:19.422Z,8.10
2022-12-02T14:30:46.270Z,8.10
2022-12-02T14:33:13.527Z,8.10
2022-12-02T14:35:40.551Z,8.00
2022-12-02T14:38:07.441Z,8.10
2022-12-02T14:40:34.788Z,8.10
2022-12-02T14:43:01.603Z,8.00
2022-12-02T14:45:28.344Z,8.00
2022-12-02T14:47:55.087Z,7.90
2022-12-02T14:50:27.034Z,7.80
2022-12-02T14:52:53.827Z,7.70
2022-12-02T14:55:20.704Z,7.70
2022-12-02T14:57:47.414Z,7.60
2022-12-02T15:00:14.206Z,7.60
2022-12-02T15:02:40.962Z,7.50
2022-12-02T15:05:13.936Z,7.50
2022-12-02T15:07:41.148Z,7.40
2022-12-02T15:10:07.947Z,7.40
2022-12-02T15:12:34.738Z,7.40
2022-12-02T15:15:22.798Z,7.30
2022-12-02T15:17:48.170Z,7.30
2022-12-02T15:20:15.383Z,7.20
2022-12-02T15:22:42.111Z,7.10
2022-12-02T15:25:08.843Z,7.10
2022-12-02T15:27:35.656Z,7.10
2022-12-02T15:30:02.418Z,7.00
2022-12-02T15:32:29.367Z,6.90
2022-12-02T15:34:56.163Z,6.90
2022-12-02T15:37:23.120Z,6.80
2022-12-02T15:39:49.868Z,6.80
2022-12-02T15:42:16.548Z,6.80
2022-12-02T15:44:43.309Z,6.80
2022-12-02T15:47:10.097Z,6.70
2022-12-02T15:49:36.830Z,6.70
2022-12-02T15:52:03.646Z,6.70
2022-12-02T15:54:31.405Z,6.70
2022-12-02T15:56:59.042Z,6.70
2022-12-02T15:59:25.827Z,6.60
2022-12-02T16:01:52.796Z,6.60
2022-12-02T16:04:19.554Z,6.60
2022-12-02T16:06:46.260Z,6.60
2022-12-02T16:09:12.996Z,6.60
2022-12-02T16:11:39.747Z,6.60
2022-12-02T16:14:06.474Z,6.50
2022-12-02T16:16:33.334Z,6.50
2022-12-02T16:19:00.307Z,6.50
2022-12-02T16:21:26.968Z,6.50
2022-12-02T16:23:53.728Z,6.50
2022-12-02T16:26:20.423Z,6.50
2022-12-02T16:28:47.180Z,6.50
2022-12-02T16:31:13.981Z,6.50
2022-12-02T16:33:41.018Z,6.50
2022-12-02T16:36:08.854Z,6.40
2022-12-02T16:38:35.570Z,6.40
2022-12-02T16:41:02.376Z,6.30
2022-12-02T16:43:29.072Z,6.30
2022-12-02T16:45:55.895Z,6.30
2022-12-02T16:48:22.645Z,6.30
2022-12-02T16:50:54.109Z,6.30
2022-12-02T16:53:22.611Z,6.30
2022-12-02T16:55:49.351Z,6.30
2022-12-02T16:58:16.065Z,6.30
2022-12-02T17:00:42.841Z,6.40
2022-12-02T17:03:09.629Z,6.40
2022-12-02T17:05:36.352Z,6.40
2022-12-02T17:08:03.314Z,6.50
2022-12-02T17:10:30.149Z,6.50
2022-12-02T17:12:56.864Z,6.50
2022-12-02T17:15:23.647Z,6.50
2022-12-02T17:17:50.478Z,6.50
2022-12-02T17:20:17.477Z,6.50
2022-12-02T17:22:44.210Z,6.60
2022-12-02T17:25:12.784Z,6.50
2022-12-02T17:27:39.652Z,6.60
2022-12-02T17:30:06.488Z,6.50
2022-12-02T17:32:33.155Z,6.60
2022-12-02T17:34:59.937Z,6.60
2022-12-02T17:37:26.654Z,6.60
2022-12-02T17:39:53.429Z,6.60
2022-12-02T17:42:20.458Z,6.60
2022-12-02T17:44:47.227Z,6.60
2022-12-02T17:47:13.913Z,6.60
2022-12-02T17:49:40.838Z,6.60
2022-12-02T17:52:19.598Z,6.60
2022-12-02T17:54:47.116Z,6.60
2022-12-02T17:57:13.841Z,6.60
2022-12-02T17:59:40.728Z,6.60
2022-12-02T18:02:07.538Z,6.60
2022-12-02T18:04:34.392Z,6.60
2022-12-02T18:07:04.167Z,6.50
2022-12-02T18:09:34.867Z,6.60
2022-12-02T18:12:01.529Z,6.50
2022-12-02T18:14:28.244Z,6.60
2022-12-02T18:16:55.333Z,6.60
2022-12-02T18:19:22.024Z,6.60
2022-12-02T18:21:49.805Z,6.50
2022-12-02T18:24:16.590Z,6.50
2022-12-02T18:26:43.374Z,6.50
2022-12-02T18:29:10.163Z,6.50
2022-12-02T18:31:36.856Z,6.60
2022-12-02T18:34:03.621Z,6.50
2022-12-02T18:36:30.404Z,6.50
2022-12-02T18:38:57.083Z,6.50
2022-12-02T18:41:23.894Z,6.50
2022-12-02T18:43:50.557Z,6.50
2022-12-02T18:46:17.325Z,6.40
2022-12-02T18:48:44.080Z,6.50
2022-12-02T18:51:10.760Z,6.50
2022-12-02T18:53:37.489Z,6.50
2022-12-02T18:56:04.154Z,6.40
2022-12-02T18:58:30.838Z,6.40
2022-12-02T19:00:57.578Z,6.50
2022-12-02T19:03:24.439Z,6.50
2022-12-02T19:05:51.223Z,6.50
2022-12-02T19:08:17.965Z,6.50
2022-12-02T19:10:44.708Z,6.40
2022-12-02T19:13:11.451Z,6.40
2022-12-02T19:15:38.803Z,6.50
2022-12-02T19:18:05.947Z,6.40
2022-12-02T19:20:32.623Z,6.40
2022-12-02T19:22:59.417Z,6.40
2022-12-02T19:25:29.043Z,6.40
2022-12-02T19:27:57.792Z,6.40
2022-12-02T19:30:24.906Z,6.40
2022-12-02T19:32:51.766Z,6.40
2022-12-02T19:35:18.461Z,6.40
2022-12-02T19:37:45.204Z,6.40
2022-12-02T19:40:11.890Z,6.40
2022-12-02T19:42:38.612Z,6.40
2022-12-02T19:45:05.384Z,6.40
2022-12-02T19:47:32.034Z,6.40
2022-12-02T19:49:58.731Z,6.40
2022-12-02T19:52:25.435Z,6.30
2022-12-02T19:54:52.279Z,6.30
2022-12-02T19:57:19.048Z,6.30
2022-12-02T19:59:45.744Z,6.30
2022-12-02T20:02:12.576Z,6.30
2022-12-02T20:04:42.236Z,6.30
2022-12-02T20:07:09.385Z,6.30
2022-12-02T20:09:36.066Z,6.30
2022-12-02T20:12:02.829Z,6.30
2022-12-02T20:14:29.720Z,6.30
2022-12-02T20:16:56.352Z,6.30
2022-12-02T20:19:23.157Z,6.30
2022-12-02T20:21:49.814Z,6.30
2022-12-02T20:24:16.494Z,6.30
2022-12-02T20:26:43.278Z,6.30
2022-12-02T20:29:10.223Z,6.20
2022-12-02T20:31:37.039Z,6.20
2022-12-02T20:34:03.917Z,6.20
2022-12-02T20:36:30.682Z,6.20
2022-12-02T20:38:57.374Z,6.20
2022-12-02T20:41:24.115Z,6.20
2022-12-02T20:43:50.899Z,6.20
2022-12-02T20:46:17.692Z,6.30
2022-12-02T20:48:44.471Z,6.30
2022-12-02T20:51:11.148Z,6.20
2022-12-02T20:53:37.856Z,6.20
2022-12-02T20:56:04.690Z,6.20
2022-12-02T20:58:31.525Z,6.30
2022-12-02T21:00:58.359Z,6.30
2022-12-02T21:03:25.114Z,6.30
2022-12-02T21:05:51.791Z,6.30
2022-12-02T21:08:18.537Z,6.20
2022-12-02T21:10:45.318Z,6.20
2022-12-02T21:13:12.082Z,6.20
2022-12-02T21:15:38.907Z,6.20
2022-12-02T21:18:05.602Z,6.20
2022-12-02T21:20:34.677Z,6.20
2022-12-02T21:23:01.714Z,6.20
2022-12-02T21:25:28.758Z,6.20
2022-12-02T21:27:56.470Z,6.20
2022-12-02T21:30:23.221Z,6.20
2022-12-02T21:32:49.923Z,6.20
2022-12-02T21:35:16.684Z,6.10
2022-12-02T21:37:43.505Z,6.10
2022-12-02T21:40:10.687Z,6.00
2022-12-02T21:42:37.387Z,6.00
2022-12-02T21:45:04.089Z,5.90
2022-12-02T21:47:31.196Z,5.90
2022-12-02T21:49:57.892Z,5.90
2022-12-02T21:52:24.565Z,5.90
2022-12-02T21:54:51.674Z,5.80
2022-12-02T21:57:18.575Z,5.80
2022-12-02T21:59:45.301Z,5.70
2022-12-02T22:02:12.068Z,5.70
2022-12-02T22:04:38.781Z,5.70
2022-12-02T22:07:24.090Z,5.80
2022-12-02T22:09:50.876Z,5.80
2022-12-02T22:12:17.539Z,5.80
2022-12-02T22:14:44.228Z,5.80
2022-12-02T22:17:11.067Z,5.80
2022-12-02T22:19:37.846Z,5.80
2022-12-02T22:22:04.550Z,5.80
2022-12-02T22:24:31.351Z,5.70
2022-12-02T22:26:58.002Z,5.80
2022-12-02T22:29:24.723Z,5.70
2022-12-02T22:31:51.549Z,5.80
2022-12-02T22:34:18.264Z,5.80
2022-12-02T22:36:45.088Z,5.80
2022-12-02T22:39:11.805Z,5.80
2022-12-02T22:41:38.476Z,5.80
2022-12-02T22:44:05.236Z,5.80
2022-12-02T22:46:31.912Z,5.80
2022-12-02T22:48:58.690Z,5.70
2022-12-02T22:51:27.661Z,5.80
2022-12-02T22:53:57.663Z,5.80
2022-12-02T22:56:24.377Z,5.70
2022-12-02T22:58:51.046Z,5.70
2022-12-02T23:01:17.807Z,5.70
2022-12-02T23:03:44.586Z,5.80
2022-12-02T23:06:11.331Z,5.70
2022-12-02T23:08:37.991Z,5.80
2022-12-02T23:11:04.713Z,5.70
2022-12-02T23:13:31.393Z,5.70
2022-12-02T23:15:58.087Z,5.70
2022-12-02T23:18:24.812Z,5.60
2022-12-02T23:20:51.490Z,5.70
2022-12-02T23:23:18.227Z,5.70
2022-12-02T23:25:45.098Z,5.70
2022-12-02T23:28:11.872Z,5.70
2022-12-02T23:30:38.759Z,5.70
2022-12-02T23:33:05.538Z,5.70
2022-12-02T23:35:32.198Z,5.70
2022-12-02T23:37:59.064Z,5.70
2022-12-02T23:40:25.913Z,5.70
2022-12-02T23:42:52.668Z,5.70
2022-12-02T23:45:19.370Z,5.70
2022-12-02T23:47:46.123Z,5.70
2022-12-02T23:50:12.860Z,5.80
2022-12-02T23:52:39.568Z,5.80
2022-12-02T23:55:06.261Z,5.80
2022-12-02T23:57:32.928Z,5.80
2022-12-02T23:59:59.664Z,5.80
